Data for 11/24/2012

Time Sea-Level Adjusted Pressure Absolute Pressure Temperature Relative Humidity Dew Point   
(mb) (inHg) (mb) (inHg) (C) (F) (%) (C) (F)
00:05 1020 30.12 849 25.07 3.5 38.4 53 -5 22.9
00:10 1020 30.12 849 25.07 3 37.4 54 -5.4 22.3
00:15 1020 30.12 849 25.07 3 37.5 54 -5.4 22.4
00:20 1020 30.12 849 25.07 3.1 37.6 52 -5.8 21.5
00:25 1020 30.12 849 25.07 3.4 38.2 51 -5.8 21.6
00:30 1020 30.12 849 25.07 3.8 38.9 51 -5.5 22.1
00:35 1020 30.12 849 25.07 3.9 39.1 53 -4.8 23.4
00:40 1020 30.12 849 25.07 3.1 37.5 54 -5.4 22.2
00:45 1019 30.09 849 25.07 2.8 37 55 -5.4 22.3
00:50 1019 30.09 849 25.07 2.5 36.5 58 -5 23.1
00:55 1019 30.09 848 25.04 2.1 35.9 58 -5.2 22.6
01:00 1019 30.09 848 25.04 1.9 35.5 53 -6.6 20.2
01:05 1019 30.09 848 25.04 3 37.3 53 -5.8 21.6
01:10 1019 30.09 848 25.04 3.5 38.3 46 -6.9 19.5
01:15 1019 30.09 848 25.04 4.3 39.8 48 -5.9 21.4
01:20 1019 30.09 848 25.04 4.3 39.8 45 -6.5 20.3
01:25 1019 30.09 848 25.04 4.2 39.6 45 -6.6 20.1
01:30 1019 30.09 848 25.04 4.1 39.4 44 -7.1 19.1
01:35 1019 30.09 848 25.04 4.3 39.8 46 -6.4 20.6
01:40 1019 30.09 848 25.04 4 39.2 46 -6.6 20.2
01:45 1019 30.09 848 25.04 3.9 39 46 -6.6 20.2
01:50 1019 30.09 848 25.04 3.5 38.2 53 -5.4 22.4
01:55 1018 30.06 848 25.04 3.1 37.6 47 -7.1 19.2
02:00 1018 30.06 848 25.04 3.9 38.9 47 -6.5 20.3
02:05 1018 30.06 848 25.04 3.8 38.8 48 -6.3 20.6
02:10 1018 30.06 847 25.01 3.5 38.3 50 -5.9 21.4
02:15 1018 30.06 847 25.01 3.3 37.9 49 -6.4 20.4
02:20 1018 30.06 848 25.04 3.5 38.3 47 -6.8 19.8
02:25 1019 30.09 848 25.04 3.6 38.5 48 -6.4 20.6
02:30 1019 30.09 848 25.04 3.5 38.3 49 -6.2 20.8
02:35 1018 30.06 848 25.04 3.7 38.7 48 -6.3 20.6
02:40 1018 30.06 848 25.04 3.9 39.1 47 -6.3 20.6
02:45 1018 30.06 848 25.04 3.8 38.8 48 -6.3 20.7
02:50 1018 30.06 848 25.04 3.8 38.8 47 -6.5 20.3
02:55 1018 30.06 848 25.04 4 39.2 44 -7.3 18.9
03:00 1018 30.06 848 25.04 4.3 39.7 46 -6.4 20.4
03:05 1018 30.06 848 25.04 4.3 39.8 43 -7.1 19.1
03:10 1018 30.06 848 25.04 4.6 40.3 44 -6.6 20.1
03:15 1018 30.06 848 25.04 4.7 40.4 43 -6.8 19.8
03:20 1018 30.06 848 25.04 4.7 40.4 43 -7 19.4
03:25 1018 30.06 848 25.04 4.8 40.6 42 -6.9 19.6
03:30 1018 30.06 848 25.04 4.7 40.5 45 -6.1 21.1
03:35 1018 30.06 847 25.01 4.4 40 43 -7.1 19.3
03:40 1018 30.06 847 25.01 4.6 40.3 41 -7.6 18.3
03:45 1018 30.06 847 25.01 4.9 40.7 43 -6.7 19.9
03:50 1018 30.06 847 25.01 4.5 40.1 40 -7.9 17.7
03:55 1018 30.06 847 25.01 4.9 40.9 39 -7.9 17.7
04:00 1018 30.06 847 25.01 4.9 40.8 39 -7.9 17.8
04:05 1018 30.06 847 25.01 4.7 40.5 42 -7.2 19
04:10 1018 30.06 847 25.01 4.4 39.9 45 -6.5 20.4
04:15 1018 30.06 847 25.01 4.1 39.3 47 -6.4 20.6
04:20 1018 30.06 847 25.01 4.2 39.6 39 -8.6 16.5
04:25 1018 30.06 847 25.01 4.6 40.3 44 -6.7 20
04:30 1018 30.06 847 25.01 4.5 40.1 44 -6.7 20
04:35 1018 30.06 847 25.01 4.7 40.4 41 -7.4 18.7
04:40 1018 30.06 847 25.01 4.7 40.5 41 -7.4 18.6
04:45 1018 30.06 847 25.01 4.7 40.5 42 -7 19.3
04:50 1018 30.06 847 25.01 4.6 40.3 43 -6.9 19.5
04:55 1018 30.06 847 25.01 4.5 40 45 -6.5 20.4
05:00 1018 30.06 847 25.01 4.4 40 45 -6.5 20.3
05:05 1018 30.06 847 25.01 4.2 39.6 44 -7 19.3
05:10 1018 30.06 847 25.01 4.4 39.8 41 -7.8 18
05:15 1018 30.06 847 25.01 4.7 40.4 40 -7.8 17.9
05:20 1018 30.06 847 25.01 4.9 40.7 41 -7.3 18.9
05:25 1018 30.06 847 25.01 4.7 40.5 41 -7.5 18.5
05:30 1018 30.06 847 25.01 4.6 40.3 40 -7.9 17.8
05:35 1018 30.06 847 25.01 4.8 40.6 40 -7.9 17.8
05:40 1018 30.06 847 25.01 4.8 40.7 40 -7.7 18.2
05:45 1018 30.06 847 25.01 4.9 40.8 39 -7.9 17.8
05:50 1018 30.06 847 25.01 5 40.9 39 -8 17.6
05:55 1018 30.06 847 25.01 4.9 40.9 40 -7.7 18.2
06:00 1018 30.06 847 25.01 4.8 40.7 41 -7.4 18.7
06:05 1018 30.06 847 25.01 4.7 40.5 40 -7.8 17.9
06:10 1018 30.06 847 25.01 4.7 40.4 41 -7.4 18.7
06:15 1018 30.06 847 25.01 4.6 40.3 43 -7 19.4
06:20 1018 30.06 847 25.01 4.2 39.6 46 -6.2 20.8
06:25 1018 30.06 847 25.01 4 39.2 49 -5.9 21.4
06:30 1018 30.06 847 25.01 3.8 38.9 46 -6.8 19.8
06:35 1018 30.06 847 25.01 4.1 39.3 47 -6.3 20.7
06:40 1018 30.06 847 25.01 3.9 38.9 46 -6.6 20.1
06:45 1018 30.06 847 25.01 3.9 39 46 -6.6 20
06:50 1018 30.06 847 25.01 4.3 39.7 44 -7 19.5
06:55 1018 30.06 847 25.01 4.4 39.9 45 -6.5 20.4
07:00 1018 30.06 847 25.01 4.2 39.6 44 -7 19.4
07:05 1018 30.06 847 25.01 4.3 39.8 47 -6 21.2
07:10 1018 30.06 847 25.01 4.1 39.4 48 -5.8 21.5
07:15 1018 30.06 847 25.01 3.8 38.9 50 -5.7 21.8
07:20 1018 30.06 847 25.01 3.4 38 50 -6.2 20.9
07:25 1018 30.06 847 25.01 3.2 37.8 50 -6.3 20.6
07:30 1018 30.06 847 25.01 3.4 38.2 48 -6.6 20.1
07:35 1018 30.06 847 25.01 3.5 38.2 48 -6.6 20.1
07:40 1018 30.06 847 25.01 3.5 38.2 49 -6.3 20.7
07:45 1018 30.06 847 25.01 3.7 38.7 43 -7.6 18.3
07:50 1018 30.06 847 25.01 4.3 39.7 41 -7.9 17.7
07:55 1018 30.06 847 25.01 4.6 40.2 42 -7.2 19
08:00 1018 30.06 847 25.01 4.7 40.5 40 -7.9 17.8
08:05 1018 30.06 847 25.01 5 41 40 -7.6 18.4
08:10 1018 30.06 847 25.01 5.2 41.3 42 -6.7 20
08:15 1018 30.06 847 25.01 4.8 40.7 41 -7.4 18.7
08:20 1018 30.06 847 25.01 4.9 40.8 45 -6.1 21
08:25 1018 30.06 847 25.01 4.2 39.6 49 -5.5 22.1
08:30 1018 30.06 847 25.01 4 39.1 47 -6.3 20.7
08:35 1018 30.06 847 25.01 4 39.2 50 -5.6 21.9
08:40 1018 30.06 847 25.01 4.1 39.3 46 -6.4 20.5
08:45 1018 30.06 847 25.01 4.2 39.5 49 -5.6 21.9
08:50 1018 30.06 847 25.01 4.1 39.4 46 -6.5 20.3
08:55 1018 30.06 847 25.01 4.3 39.7 44 -7 19.5
09:00 1018 30.06 847 25.01 4.7 40.5 41 -7.3 18.9
09:05 1018 30.06 847 25.01 4.9 40.8 42 -7 19.4
09:10 1018 30.06 847 25.01 5 40.9 39 -7.8 17.9
09:15 1018 30.06 847 25.01 5.2 41.4 42 -6.6 20
09:20 1018 30.06 847 25.01 5.1 41.1 43 -6.6 20.2
09:25 1018 30.06 847 25.01 5 41 44 -6.1 20.9
09:30 1018 30.06 847 25.01 4.9 40.9 45 -5.9 21.4
09:35 1018 30.06 847 25.01 4.9 40.8 43 -6.8 19.7
09:40 1018 30.06 847 25.01 5.1 41.2 43 -6.5 20.3
09:45 1018 30.06 847 25.01 5.3 41.5 43 -6.2 20.8
09:50 1018 30.06 847 25.01 5.1 41.2 44 -6.2 20.8
09:55 1018 30.06 847 25.01 5.2 41.4 42 -6.8 19.8
10:00 1018 30.06 847 25.01 5.4 41.8 42 -6.4 20.5
10:05 1018 30.06 847 25.01 5.4 41.8 44 -6 21.2
10:10 1018 30.06 847 25.01 5.6 42 43 -6.1 21.1
10:15 1018 30.06 847 25.01 5.5 42 42 -6.5 20.3
10:20 1018 30.06 847 25.01 5.5 42 42 -6.3 20.6
10:25 1018 30.06 847 25.01 5.5 41.8 42 -6.4 20.5
10:30 1018 30.06 847 25.01 5.5 41.9 43 -6.1 21
10:35 1018 30.06 847 25.01 5.4 41.7 48 -4.7 23.5
10:40 1018 30.06 847 25.01 4.9 40.9 48 -5.2 22.6
10:45 1018 30.06 847 25.01 5 40.9 47 -5.5 22.1
10:50 1018 30.06 847 25.01 5.2 41.3 46 -5.6 22
10:55 1018 30.06 847 25.01 5.3 41.6 46 -5.3 22.5
11:00 1018 30.06 847 25.01 5.4 41.8 44 -5.9 21.4
11:05 1018 30.06 847 25.01 5.7 42.2 43 -5.9 21.3
11:10 1018 30.06 847 25.01 5.8 42.5 43 -5.8 21.6
11:15 1018 30.06 847 25.01 5.9 42.7 43 -5.6 21.9
11:20 1018 30.06 847 25.01 5.9 42.7 45 -5.2 22.7
11:25 1018 30.06 847 25.01 5.9 42.7 44 -5.4 22.2
11:30 1018 30.06 847 25.01 6 42.7 44 -5.4 22.2
11:35 1018 30.06 847 25.01 6 42.7 46 -4.9 23.2
11:40 1018 30.06 847 25.01 5.9 42.6 45 -5.2 22.6
11:45 1018 30.06 847 25.01 5.7 42.3 45 -5.2 22.7
11:50 1018 30.06 847 25.01 5.7 42.3 45 -5.4 22.2
11:55 1018 30.06 847 25.01 5.7 42.2 47 -4.7 23.5
12:00 1018 30.06 847 25.01 5.7 42.3 47 -4.8 23.4
12:05 1018 30.06 847 25.01 5.8 42.4 47 -4.6 23.7
12:10 1018 30.06 847 25.01 5.9 42.6 47 -4.7 23.6
12:15 1018 30.06 847 25.01 6 42.8 47 -4.4 24
12:20 1018 30.06 847 25.01 6.1 43 45 -4.9 23.2
12:25 1018 30.06 847 25.01 6.2 43.2 45 -4.9 23.1
12:30 1017 30.03 847 25.01 6.4 43.5 45 -4.8 23.4
12:35 1017 30.03 847 25.01 6.6 43.8 47 -3.9 25
12:40 1017 30.03 846 24.98 6.8 44.2 45 -4.3 24.3
12:45 1017 30.03 846 24.98 7.1 44.7 47 -3.4 26
12:50 1017 30.03 846 24.98 7.3 45.2 49 -2.7 27.2
12:55 1017 30.03 846 24.98 7.6 45.6 51 -1.9 28.6
13:00 1017 30.03 846 24.98 8 46.3 50 -1.7 29
13:05 1017 30.03 846 24.98 8.2 46.8 50 -1.5 29.4
13:10 1017 30.03 846 24.98 8.2 46.7 50 -1.5 29.3
13:15 1017 30.03 846 24.98 8.3 46.9 49 -1.7 29
13:20 1017 30.03 846 24.98 8.4 47.2 48 -1.9 28.6
13:25 1017 30.03 846 24.98 8.5 47.3 50 -1.3 29.7
13:30 1017 30.03 846 24.98 8.5 47.3 49 -1.6 29.2
13:35 1017 30.03 846 24.98 8.6 47.4 48 -1.8 28.7
13:40 1017 30.03 846 24.98 8.7 47.7 48 -1.7 28.9
13:45 1017 30.03 846 24.98 8.7 47.7 48 -1.6 29.1
13:50 1017 30.03 846 24.98 8.8 47.8 48 -1.5 29.4
13:55 1017 30.03 846 24.98 8.8 47.8 49 -1.2 29.8
14:00 1017 30.03 846 24.98 8.9 48.1 47 -1.7 29
14:05 1017 30.03 846 24.98 9 48.3 48 -1.4 29.5
14:10 1017 30.03 846 24.98 9 48.2 48 -1.5 29.3
14:15 1017 30.03 846 24.98 9 48.2 46 -1.9 28.6
14:20 1017 30.03 846 24.98 8.9 48 47 -1.7 28.9
14:25 1017 30.03 846 24.98 8.8 47.8 47 -1.8 28.7
14:30 1017 30.03 846 24.98 8.7 47.7 47 -1.8 28.7
14:35 1017 30.03 846 24.98 8.7 47.6 48 -1.7 29
14:40 1017 30.03 846 24.98 8.6 47.4 49 -1.6 29.1
14:45 1017 30.03 846 24.98 8.5 47.3 49 -1.5 29.3
14:50 1017 30.03 846 24.98 8.5 47.3 49 -1.6 29
14:55 1017 30.03 846 24.98 8.4 47.2 49 -1.6 29.2
15:00 1017 30.03 846 24.98 8.4 47.1 50 -1.5 29.3
15:05 1017 30.03 846 24.98 8.4 47.1 50 -1.5 29.3
15:10 1017 30.03 846 24.98 8.5 47.2 50 -1.5 29.3
15:15 1017 30.03 846 24.98 8.4 47.1 50 -1.3 29.7
15:20 1017 30.03 846 24.98 8.4 47 50 -1.5 29.3
15:25 1017 30.03 846 24.98 8.4 47.2 50 -1.4 29.4
15:30 1017 30.03 846 24.98 8.4 47.2 50 -1.3 29.7
15:35 1017 30.03 846 24.98 8.5 47.2 50 -1.3 29.6
15:40 1017 30.03 846 24.98 8.6 47.4 50 -1.4 29.5
15:45 1017 30.03 846 24.98 8.6 47.4 50 -1.1 30
15:50 1017 30.03 846 24.98 8.5 47.3 50 -1.2 29.9
15:55 1017 30.03 846 24.98 8.5 47.4 50 -1.4 29.5
16:00 1017 30.03 846 24.98 8.5 47.3 50 -1.3 29.6
16:05 1017 30.03 846 24.98 8.5 47.4 49 -1.5 29.3
16:10 1017 30.03 846 24.98 8.6 47.4 50 -1.3 29.6
16:15 1017 30.03 846 24.98 8.5 47.4 50 -1.2 29.8
16:20 1017 30.03 846 24.98 8.5 47.2 50 -1.3 29.6
16:25 1016 30 846 24.98 8.5 47.3 50 -1.4 29.5
16:30 1016 30 846 24.98 8.5 47.4 50 -1.3 29.6
16:35 1016 30 846 24.98 8.5 47.4 50 -1.3 29.7
16:40 1016 30 846 24.98 8.5 47.3 50 -1.3 29.6
16:45 1016 30 846 24.98 8.5 47.2 49 -1.7 29
16:50 1016 30 846 24.98 8.5 47.4 49 -1.5 29.2
16:55 1016 30 846 24.98 8.5 47.2 50 -1.5 29.4
17:00 1017 30.03 846 24.98 8.4 47.2 50 -1.2 29.8
17:05 1017 30.03 846 24.98 8.3 46.9 52 -1.1 30.1
17:10 1017 30.03 846 24.98 8.1 46.6 53 -1 30.3
17:15 1017 30.03 846 24.98 8 46.3 53 -1.1 30
17:20 1017 30.03 846 24.98 7.9 46.2 53 -1.1 30.1
17:25 1017 30.03 846 24.98 7.8 46 54 -1 30.2
17:30 1017 30.03 846 24.98 7.6 45.6 55 -0.8 30.5
17:35 1017 30.03 846 24.98 7.1 44.8 57 -0.9 30.3
17:40 1017 30.03 846 24.98 6.7 44.1 58 -0.9 30.3
17:45 1017 30.03 846 24.98 6.5 43.6 59 -1 30.1
17:50 1017 30.03 846 24.98 6.3 43.3 59 -1.1 30.1
17:55 1017 30.03 846 24.98 6.2 43.1 59 -1.1 30
18:00 1017 30.03 846 24.98 6.1 42.9 60 -1.2 29.9
18:05 1017 30.03 846 24.98 6 42.9 62 -0.8 30.6
18:10 1017 30.03 846 24.98 6 42.8 60 -1.2 29.8
18:15 1017 30.03 846 24.98 6 42.7 60 -1.3 29.7
18:20 1017 30.03 846 24.98 5.9 42.7 59 -1.4 29.5
18:25 1017 30.03 846 24.98 5.9 42.6 61 -1.1 30.1
18:30 1017 30.03 846 24.98 5.7 42.3 61 -1.2 29.8
18:35 1017 30.03 846 24.98 5.5 41.9 64 -0.8 30.6
18:40 1017 30.03 846 24.98 5.2 41.4 65 -0.8 30.5
18:45 1017 30.03 846 24.98 5.2 41.3 65 -0.8 30.5
18:50 1017 30.03 846 24.98 5.2 41.4 64 -1 30.3
18:55 1017 30.03 846 24.98 5.2 41.4 64 -1.1 30
19:00 1017 30.03 846 24.98 5.4 41.6 62 -1.3 29.6
19:05 1017 30.03 846 24.98 5.4 41.7 62 -1.3 29.7
19:10 1017 30.03 846 24.98 5.3 41.6 62 -1.3 29.6
19:15 1017 30.03 846 24.98 5.4 41.8 60 -1.6 29.1
19:20 1017 30.03 846 24.98 5.6 42.2 60 -1.5 29.2
19:25 1017 30.03 846 24.98 5.6 42.1 60 -1.5 29.2
19:30 1017 30.03 846 24.98 5.6 42.1 60 -1.6 29.1
19:35 1017 30.03 846 24.98 5.6 42 60 -1.6 29.1
19:40 1017 30.03 846 24.98 5.6 42 60 -1.6 29.1
19:45 1017 30.03 846 24.98 5.5 41.9 60 -1.6 29.2
19:50 1017 30.03 846 24.98 5.4 41.8 60 -1.7 29
19:55 1017 30.03 846 24.98 5.4 41.7 60 -1.6 29.1
20:00 1017 30.03 846 24.98 5.3 41.6 61 -1.6 29.1
20:05 1017 30.03 846 24.98 5.2 41.3 62 -1.5 29.3
20:10 1017 30.03 846 24.98 5 40.9 63 -1.5 29.3
20:15 1017 30.03 846 24.98 4.6 40.3 64 -1.7 29
20:20 1017 30.03 846 24.98 4.6 40.2 63 -1.9 28.5
20:25 1017 30.03 846 24.98 4.6 40.2 64 -1.7 28.9
20:30 1017 30.03 846 24.98 4.4 39.9 61 -2.5 27.5
20:35 1017 30.03 846 24.98 4.7 40.4 62 -2.1 28.3
20:40 1017 30.03 846 24.98 4.6 40.3 61 -2.1 28.2
20:45 1017 30.03 846 24.98 4.7 40.4 62 -2.1 28.3
20:50 1017 30.03 846 24.98 4.6 40.2 63 -1.9 28.5
20:55 1017 30.03 846 24.98 4.4 40 62 -2.2 28.1
21:00 1017 30.03 846 24.98 4.4 39.9 62 -2.2 28
21:05 1017 30.03 846 24.98 4.3 39.7 61 -2.5 27.5
21:10 1017 30.03 846 24.98 4.4 40 59 -2.8 27
21:15 1017 30.03 846 24.98 4.5 40.1 59 -2.7 27.1
21:20 1017 30.03 846 24.98 4.5 40.2 59 -2.7 27.1
21:25 1017 30.03 846 24.98 4.4 40 60 -2.6 27.2
21:30 1017 30.03 846 24.98 4.3 39.8 60 -2.8 26.9
21:35 1017 30.03 846 24.98 4.3 39.8 59 -3 26.7
21:40 1017 30.03 846 24.98 4.4 39.8 58 -3.2 26.2
21:45 1017 30.03 846 24.98 4.5 40.1 57 -3.2 26.2
21:50 1017 30.03 846 24.98 4.8 40.6 55 -3.5 25.6
21:55 1017 30.03 846 24.98 4.9 40.8 55 -3.3 26.1
22:00 1017 30.03 846 24.98 4.8 40.7 54 -3.7 25.4
22:05 1017 30.03 846 24.98 4.8 40.7 56 -3.2 26.3
22:10 1017 30.03 846 24.98 4.6 40.3 56 -3.4 25.8
22:15 1017 30.03 846 24.98 4.5 40 57 -3.2 26.2
22:20 1017 30.03 846 24.98 4.2 39.5 60 -2.8 27
22:25 1017 30.03 846 24.98 3.6 38.5 63 -2.9 26.9
22:30 1017 30.03 846 24.98 3.4 38.1 63 -3.1 26.5
22:35 1017 30.03 846 24.98 3.4 38 61 -3.4 25.8
22:40 1017 30.03 846 24.98 3.7 38.6 59 -3.6 25.5
22:45 1016 30 846 24.98 3.8 38.9 59 -3.4 25.8
22:50 1017 30.03 846 24.98 3.7 38.6 62 -3 26.6
22:55 1017 30.03 846 24.98 3.2 37.8 64 -2.9 26.7
23:00 1017 30.03 846 24.98 3.1 37.5 64 -3.1 26.5
23:05 1017 30.03 846 24.98 3 37.4 64 -3.1 26.5
23:10 1017 30.03 846 24.98 3.1 37.6 64 -3.1 26.4
23:15 1017 30.03 846 24.98 3.1 37.5 65 -3 26.7
23:20 1016 30 846 24.98 2.9 37.2 65 -3 26.6
23:25 1016 30 846 24.98 2.8 37 65 -3.1 26.4
23:30 1016 30 846 24.98 2.7 36.9 67 -2.7 27.1
23:35 1016 30 846 24.98 2.7 36.8 66 -3.1 26.4
23:40 1016 30 846 24.98 2.7 36.8 67 -2.9 26.7
23:45 1017 30.03 846 24.98 2.5 36.6 66 -3.1 26.4
23:50 1016 30 846 24.98 2.5 36.6 66 -3.1 26.4
23:55 1016 30 846 24.98 2.5 36.5 66 -3.2 26.2
24:00 1016 30 846 24.98 2.5 36.5 66 -3.2 26.2